Time;durP1;ratioP1;P1;durP2;ratioP2;P2;SDS_P1;SDS_P2;PMS_P1;PMS_P2;Temp;Humidity;BMP_temperature;BMP_pressure;BME280_temperature;BME280_humidity;BME280_pressure;Samples;Min_cycle;Max_cycle;Signal;HPM_P1;HPM_P2
2023/06/30 05:11:45;;;;;;;;;;;;;;;14.87;100.00;99229.41;5118431;23;19933;-84
2023/06/30 05:14:10;;;;;;;;;;;;;;;14.51;100.00;99228.28;4974220;28;19926;-85
2023/06/30 05:16:36;;;;;;;;;;;;;;;14.20;100.00;99225.03;4975545;28;20364;-85
2023/06/30 05:19:01;;;;;;;;;;;;;;;14.29;100.00;99226.22;4975062;28;19922;-85
2023/06/30 05:21:26;;;;;;;;;;;;;;;14.07;100.00;99229.44;4974101;28;19918;-85
2023/06/30 05:23:51;;;;;;;;;;;;;;;14.03;100.00;99228.81;4973944;28;19925;-85
2023/06/30 05:26:17;;;;;;;;;;;;;;;14.07;100.00;99233.00;4974065;28;20077;-86
2023/06/30 05:28:42;;;;;;;;;;;;;;;14.59;100.00;99233.94;4982076;28;19940;-85
2023/06/30 05:31:07;;;;;;;;;;;;;;;15.14;100.00;99241.78;4975086;28;19969;-86
2023/06/30 05:33:32;;;;;;;;;;;;;;;15.05;100.00;99245.97;4975045;28;19918;-85
2023/06/30 05:35:58;;;;;;;;;;;;;;;14.65;100.00;99243.38;4973727;28;19965;-85
2023/06/30 05:38:23;;;;;;;;;;;;;;;14.78;100.00;99244.25;4974959;28;20293;-85
2023/06/30 05:40:48;;;;;;;;;;;;;;;15.08;100.00;99243.09;4973739;28;19966;-85
2023/06/30 05:43:14;;;;;;;;;;;;;;;14.65;100.00;99246.91;4973587;28;19922;-86
2023/06/30 05:45:39;;;;;;;;;;;;;;;14.40;100.00;99238.84;4974952;28;19918;-88
2023/06/30 05:48:04;;;;;;;;;;;;;;;14.04;100.00;99235.84;4974587;28;19992;-85
2023/06/30 05:50:30;;;;;;;;;;;;;;;14.14;100.00;99233.44;4973559;28;19990;-86
2023/06/30 05:52:55;;;;;;;;;;;;;;;14.21;100.00;99231.22;4974661;28;19929;-86
2023/06/30 05:55:20;;;;;;;;;;;;;;;14.30;100.00;99239.44;4973400;28;19961;-85
2023/06/30 05:57:46;;;;;;;;;;;;;;;14.07;100.00;99237.44;4973302;28;19929;-86
2023/06/30 06:00:11;;;;;;;;;;;;;;;14.26;100.00;99240.59;4972848;28;20266;-86
2023/06/30 06:02:37;;;;;;;;;;;;;;;13.89;100.00;99237.69;4974473;28;19940;-84
2023/06/30 06:05:02;;;;;;;;;;;;;;;13.91;100.00;99251.78;4973181;28;19969;-86
2023/06/30 06:07:27;;;;;;;;;;;;;;;13.72;100.00;99243.25;4974511;28;20328;-86
2023/06/30 06:09:53;;;;;;;;;;;;;;;13.61;100.00;99242.16;4973099;28;19922;-86
2023/06/30 06:12:18;;;;;;;;;;;;;;;13.51;100.00;99246.34;4972821;28;19993;-86
2023/06/30 06:14:43;;;;;;;;;;;;;;;13.56;100.00;99249.59;4974376;28;20365;-86
2023/06/30 06:17:08;;;;;;;;;;;;;;;13.46;100.00;99253.78;4974219;28;19918;-86
2023/06/30 06:19:34;;;;;;;;;;;;;;;13.41;100.00;99261.19;4972222;28;20400;-86
2023/06/30 06:22:00;;;;;;;;;;;;;;;13.47;100.00;99263.47;4973636;28;19926;-86
2023/06/30 06:24:25;;;;;;;;;;;;;;;13.42;100.00;99273.56;4974101;28;20420;-86
2023/06/30 06:26:51;;;;;;;;;;;;;;;13.42;100.00;99270.91;4971544;28;19922;-86
2023/06/30 06:29:21;;;;;;;;;;;;;;;13.41;100.00;99270.03;4973975;28;19918;-86
2023/06/30 06:31:48;;;;;;;;;;;;;;;13.50;100.00;99268.59;4973156;28;20069;-86
2023/06/30 06:34:14;;;;;;;;;;;;;;;13.30;100.00;99274.28;4971063;28;19929;-86
2023/06/30 06:36:39;;;;;;;;;;;;;;;13.76;100.00;99284.72;4973929;28;19948;-86
2023/06/30 06:39:04;;;;;;;;;;;;;;;14.23;100.00;99293.25;4973807;28;20004;-86
2023/06/30 06:41:30;;;;;;;;;;;;;;;14.38;100.00;99296.72;4971184;28;20373;-84
2023/06/30 06:43:56;;;;;;;;;;;;;;;13.82;100.00;99292.31;4973852;28;19922;-86
2023/06/30 06:46:21;;;;;;;;;;;;;;;13.59;100.00;99291.09;4973719;28;19919;-85
2023/06/30 06:48:46;;;;;;;;;;;;;;;13.50;100.00;99295.22;4972268;28;20255;-86
2023/06/30 06:51:12;;;;;;;;;;;;;;;13.55;100.00;99293.13;4973687;28;19986;-86
2023/06/30 06:53:37;;;;;;;;;;;;;;;13.62;100.00;99299.78;4973780;28;19983;-87
2023/06/30 06:56:03;;;;;;;;;;;;;;;13.41;100.00;99299.28;4971115;28;19925;-88
2023/06/30 06:58:29;;;;;;;;;;;;;;;13.38;100.00;99295.97;4973633;28;19926;-87
2023/06/30 07:00:55;;;;;;;;;;;;;;;13.32;100.00;99291.84;4973416;28;20017;-87
2023/06/30 07:03:21;;;;;;;;;;;;;;;13.52;100.00;99289.81;4972109;28;19965;-88
2023/06/30 07:05:47;;;;;;;;;;;;;;;13.62;100.00;99294.47;4972404;28;19914;-87
2023/06/30 07:08:13;;;;;;;;;;;;;;;13.29;100.00;99288.53;4971948;28;20269;-88
2023/06/30 07:10:39;;;;;;;;;;;;;;;13.21;100.00;99289.88;4972199;28;19942;-87
2023/06/30 07:13:04;;;;;;;;;;;;;;;13.31;100.00;99294.63;4973435;28;19918;-88
2023/06/30 07:15:30;;;;;;;;;;;;;;;13.37;100.00;99299.56;4973494;28;19977;-88
2023/06/30 07:17:58;;;;;;;;;;;;;;;13.52;100.00;99301.28;4973322;28;19924;-87
2023/06/30 07:47:16;;;;;;;;;;;;;;;14.15;100.00;99329.25;5048022;23;19926;-91
2023/06/30 07:50:09;;;;;;;;;;;;;;;;;;;;;
2023/06/30 07:52:49;;;;;;;;;;;;;;;13.95;100.00;99333.19;4978189;28;20001;-92
2023/06/30 07:55:33;;;;;;;;;;;;;;;;;;;;;
2023/06/30 07:58:01;;;;;;;;;;;;;;;13.63;100.00;99337.88;4981663;28;19993;-93
2023/06/30 08:00:49;;;;;;;;;;;;;;;13.71;100.00;99340.91;4974793;28;20012;-94
2023/06/30 08:03:19;;;;;;;;;;;;;;;13.83;100.00;99333.09;4975985;28;20344;-93
2023/06/30 08:05:55;;;;;;;;;;;;;;;14.37;100.00;99333.16;4990318;28;19918;-93
2023/06/30 08:08:27;;;;;;;;;;;;;;;14.78;100.00;99342.06;4988387;28;19922;-94
2023/06/30 08:11:09;;;;;;;;;;;;;;;14.57;100.00;99337.19;4971439;28;20339;-93
2023/06/30 08:13:39;;;;;;;;;;;;;;;14.73;100.00;99341.50;4989189;28;19918;-95
2023/06/30 08:16:14;;;;;;;;;;;;;;;15.04;100.00;99338.47;4989382;28;19925;-93
2023/06/30 08:18:43;;;;;;;;;;;;;;;14.64;100.00;99343.84;4989562;28;19922;-93
2023/06/30 08:21:11;;;;;;;;;;;;;;;14.79;100.00;99357.97;4974806;28;19969;-92
2023/06/30 08:23:36;;;;;;;;;;;;;;;15.24;100.00;99355.78;4974948;28;20381;-89
2023/06/30 08:26:24;;;;;;;;;;;;;;;15.20;100.00;99361.44;4973281;28;19925;-93
2023/06/30 08:29:22;;;;;;;;;;;;;;;14.25;100.00;99342.81;4977270;28;19922;-93
2023/06/30 08:32:16;;;;;;;;;;;;;;;14.01;100.00;99345.25;4976020;28;19922;-94
2023/06/30 08:37:50;;;;;;;;;;;;;;;14.15;100.00;99347.03;4962837;28;20293;-92
2023/06/30 08:40:21;;;;;;;;;;;;;;;14.55;100.00;99352.44;4977487;28;20162;-92
2023/06/30 08:43:11;;;;;;;;;;;;;;;14.85;100.00;99356.69;4973510;28;20337;-92
2023/06/30 08:45:42;;;;;;;;;;;;;;;14.51;100.00;99361.56;4978672;28;19922;-94
2023/06/30 08:51:01;;;;;;;;;;;;;;;15.07;100.00;99359.59;4952142;23;19954;-93
2023/06/30 09:11:26;;;;;;;;;;;;;;;15.15;100.00;99355.56;4750487;23;19940;-94
2023/06/30 09:14:33;;;;;;;;;;;;;;;;;;;;;
2023/06/30 09:17:21;;;;;;;;;;;;;;;;;;;;;
2023/06/30 09:20:36;;;;;;;;;;;;;;;;;;;;;
2023/06/30 09:24:03;;;;;;;;;;;;;;;;;;;;;
2023/06/30 09:26:35;;;;;;;;;;;;;;;;;;;;;
2023/06/30 09:29:25;;;;;;;;;;;;;;;14.04;100.00;99361.06;4929728;29;19929;-94
2023/06/30 09:56:28;;;;;;;;;;;;;;;;;;;;;
2023/06/30 10:02:06;;;;;;;;;;;;;;;14.12;100.00;99356.09;4918829;28;20021;-90
2023/06/30 10:04:31;;;;;;;;;;;;;;;13.99;100.00;99357.81;4979052;28;19972;-89
2023/06/30 10:12:02;;;;;;;;;;;;;;;13.87;100.00;99362.13;5179699;23;20424;-94
2023/06/30 10:14:55;;;;;;;;;;;;;;;;;;;;;
2023/06/30 10:17:34;;;;;;;;;;;;;;;;;;;;;
2023/06/30 10:20:13;;;;;;;;;;;;;;;14.45;100.00;99367.31;5013649;28;19953;-92
2023/06/30 10:31:36;;;;;;;;;;;;;;;13.67;100.00;99375.81;4911536;28;19930;-94
2023/06/30 10:34:34;;;;;;;;;;;;;;;;;;;;;
2023/06/30 10:37:00;;;;;;;;;;;;;;;14.45;100.00;99375.31;4942386;29;19925;-88
2023/06/30 10:39:47;;;;;;;;;;;;;;;14.77;100.00;99383.00;4978336;28;20004;-92
2023/06/30 10:54:44;;;;;;;;;;;;;;;13.55;100.00;99369.47;4963223;28;19953;-93
2023/06/30 11:05:21;;;;;;;;;;;;;;;13.29;100.00;99371.88;5014878;23;19988;-89
2023/06/30 11:07:48;;;;;;;;;;;;;;;13.46;100.00;99362.88;4990317;28;19925;-87
2023/06/30 11:10:46;;;;;;;;;;;;;;;13.46;100.00;99362.88;4995646;28;20311;-94
2023/06/30 11:13:11;;;;;;;;;;;;;;;13.19;100.00;99362.72;4995299;28;19964;-90
2023/06/30 11:15:43;;;;;;;;;;;;;;;13.21;100.00;99358.16;4996458;28;19961;-92
2023/06/30 11:18:23;;;;;;;;;;;;;;;13.17;100.00;99360.16;4994965;28;19925;-93
2023/06/30 11:21:30;;;;;;;;;;;;;;;13.24;100.00;99353.53;4996900;28;20012;-96
2023/06/30 11:24:00;;;;;;;;;;;;;;;13.42;100.00;99356.91;4923672;29;19925;-94
2023/06/30 11:26:28;;;;;;;;;;;;;;;14.25;100.00;99353.47;4926317;29;19919;-94
2023/06/30 11:36:17;;;;;;;;;;;;;;;;;;;;;
2023/06/30 11:39:06;;;;;;;;;;;;;;;13.50;100.00;99352.91;4867023;29;20078;-94
2023/06/30 11:44:12;;;;;;;;;;;;;;;13.32;100.00;99349.53;5018926;23;19926;-95
2023/06/30 11:47:00;;;;;;;;;;;;;;;13.38;100.00;99346.53;5002810;28;19925;-95
2023/06/30 11:49:59;;;;;;;;;;;;;;;13.55;100.00;99349.00;4961325;28;19917;-95
2023/06/30 12:01:32;;;;;;;;;;;;;;;13.14;100.00;99346.19;5013759;23;20024;-90
2023/06/30 12:04:37;;;;;;;;;;;;;;;13.15;100.00;99343.44;4994951;28;19918;-94
2023/06/30 12:07:27;;;;;;;;;;;;;;;12.98;100.00;99341.78;5013455;28;19918;-93
2023/06/30 12:10:29;;;;;;;;;;;;;;;;;;;;;
2023/06/30 12:15:31;;;;;;;;;;;;;;;13.22;100.00;99341.25;5106906;23;20527;-92
2023/06/30 12:26:43;;;;;;;;;;;;;;;13.28;100.00;99324.94;5090579;23;19926;-93
2023/06/30 12:29:10;;;;;;;;;;;;;;;13.95;100.00;99325.19;5007354;28;20069;-91
2023/06/30 12:31:36;;;;;;;;;;;;;;;14.35;100.00;99330.59;5018497;28;20392;-91
2023/06/30 12:34:13;;;;;;;;;;;;;;;14.07;100.00;99320.03;5000900;28;19928;-94
2023/06/30 12:37:00;;;;;;;;;;;;;;;13.52;100.00;99319.09;5024089;28;19924;-92
2023/06/30 12:39:38;;;;;;;;;;;;;;;14.07;100.00;99322.69;5001106;28;20017;-93
2023/06/30 12:42:06;;;;;;;;;;;;;;;14.41;100.00;99333.81;5019847;28;19922;-95
2023/06/30 12:44:35;;;;;;;;;;;;;;;14.49;100.00;99327.03;4996458;28;20399;-93
2023/06/30 12:47:41;;;;;;;;;;;;;;;13.83;100.00;99322.47;5008774;28;19965;-96
2023/06/30 12:53:00;;;;;;;;;;;;;;;13.22;100.00;99312.00;4913589;29;19931;-89
2023/06/30 12:59:29;;;;;;;;;;;;;;;12.82;100.00;99299.31;4889610;28;20296;-95
2023/06/30 13:05:20;;;;;;;;;;;;;;;13.36;100.00;99313.84;4906492;29;19926;-92
2023/06/30 13:07:48;;;;;;;;;;;;;;;12.76;100.00;99309.47;5016510;28;19928;-91
2023/06/30 13:10:19;;;;;;;;;;;;;;;12.28;100.00;99306.94;5014711;28;19921;-95
2023/06/30 13:26:15;;;;;;;;;;;;;;;12.30;100.00;99318.31;2452421;23;19926;-87
2023/06/30 13:51:05;;;;;;;;;;;;;;;;;;;;;
2023/06/30 13:53:45;;;;;;;;;;;;;;;12.24;100.00;99270.84;5006755;28;19924;-95
2023/06/30 14:02:02;;;;;;;;;;;;;;;13.22;100.00;99254.31;5017671;23;20625;-93
2023/06/30 14:18:50;;;;;;;;;;;;;;;12.74;100.00;99245.75;5014573;23;20320;-95
2023/06/30 14:24:13;;;;;;;;;;;;;;;12.69;100.00;99231.91;5641967;23;20656;-92
2023/06/30 14:26:38;;;;;;;;;;;;;;;12.54;100.00;99229.22;4983344;28;19930;-91
2023/06/30 15:04:30;;;;;;;;;;;;;;;13.71;100.00;99212.28;5046655;22;20025;-93
2023/06/30 15:28:14;;;;;;;;;;;;;;;14.85;100.00;99194.88;5009993;22;19921;-88
2023/06/30 15:33:19;;;;;;;;;;;;;;;14.71;100.00;99179.81;5117692;23;19926;-92
2023/06/30 15:36:53;;;;;;;;;;;;;;;13.42;100.00;99193.72;5036242;28;20530;-95
2023/06/30 15:38:56;;;;;;;;;;;;;;;14.35;100.00;99175.19;4905053;28;19936;-92
2023/06/30 15:41:22;;;;;;;;;;;;;;;12.56;100.00;99185.72;5031856;28;19961;-90
2023/06/30 15:43:47;;;;;;;;;;;;;;;12.21;100.00;99180.75;5032599;28;20006;-90
2023/06/30 15:49:40;;;;;;;;;;;;;;;;;;;;;
2023/06/30 16:42:08;;;;;;;;;;;;;;;11.64;100.00;99168.94;6087841;23;19983;31
2023/06/30 17:09:26;;;;;;;;;;;;;;;11.79;100.00;99162.75;5035121;28;19932;-90
2023/06/30 17:12:12;;;;;;;;;;;;;;;11.50;100.00;99152.94;4992560;28;19922;-90
2023/06/30 17:14:43;;;;;;;;;;;;;;;11.75;100.00;99163.84;4992701;28;20480;-92
2023/06/30 17:35:15;;;;;;;;;;;;;;;;;;;;;
2023/06/30 17:37:41;;;;;;;;;;;;;;;11.94;100.00;99171.63;4925002;29;19923;-94
2023/06/30 17:40:43;;;;;;;;;;;;;;;12.23;100.00;99173.53;4927296;29;19925;-96
2023/06/30 17:43:47;;;;;;;;;;;;;;;12.79;100.00;99187.84;4897913;29;19926;-93
2023/06/30 17:54:13;;;;;;;;;;;;;;;;;;;;;
2023/06/30 17:56:51;;;;;;;;;;;;;;;11.73;100.00;99175.53;4994670;28;20927;-92
2023/06/30 17:59:16;;;;;;;;;;;;;;;11.73;100.00;99178.16;4992597;28;20000;-87
2023/06/30 18:01:44;;;;;;;;;;;;;;;11.61;100.00;99177.91;5089300;23;19925;-89
2023/06/30 18:04:10;;;;;;;;;;;;;;;11.58;100.00;99169.25;4985495;28;19977;-89
2023/06/30 18:07:04;;;;;;;;;;;;;;;11.61;100.00;99177.91;4987936;28;20429;-91
2023/06/30 18:09:49;;;;;;;;;;;;;;;11.52;100.00;99185.53;4985194;28;20365;-90
2023/06/30 18:15:18;;;;;;;;;;;;;;;11.58;100.00;99179.88;4905824;29;20616;-89
2023/06/30 18:17:59;;;;;;;;;;;;;;;11.56;100.00;99184.44;4997263;28;19922;-92
2023/06/30 18:20:45;;;;;;;;;;;;;;;11.55;100.00;99183.59;4989091;28;19971;-93
2023/06/30 18:26:51;;;;;;;;;;;;;;;;;;;;;
2023/06/30 18:30:08;;;;;;;;;;;;;;;11.57;100.00;99187.00;4960352;28;20045;-93
2023/06/30 18:32:33;;;;;;;;;;;;;;;11.52;100.00;99194.38;4926132;29;19915;-92
2023/06/30 18:35:39;;;;;;;;;;;;;;;11.50;100.00;99190.06;4923797;29;20799;-94
2023/06/30 18:38:15;;;;;;;;;;;;;;;11.76;100.00;99193.94;4913202;29;20397;-93
2023/06/30 18:40:43;;;;;;;;;;;;;;;11.52;100.00;99199.66;4909208;29;19957;-92
2023/06/30 18:43:09;;;;;;;;;;;;;;;11.51;100.00;99197.94;5056770;23;19929;-93
2023/06/30 18:45:35;;;;;;;;;;;;;;;11.73;100.00;99196.75;5017000;28;19924;-91
2023/06/30 18:48:00;;;;;;;;;;;;;;;11.73;100.00;99208.22;5017149;28;20339;-93
2023/06/30 18:50:25;;;;;;;;;;;;;;;11.55;100.00;99204.81;5016065;28;19921;-91
2023/06/30 18:53:07;;;;;;;;;;;;;;;;;;;;;
2023/06/30 19:01:29;;;;;;;;;;;;;;;12.77;100.00;99211.00;5003588;22;19932;-86
2023/06/30 19:03:57;;;;;;;;;;;;;;;13.85;100.00;99198.94;4985178;28;20292;-86
2023/06/30 19:06:31;;;;;;;;;;;;;;;12.39;100.00;99214.16;4982731;28;19921;-90
2023/06/30 19:08:56;;;;;;;;;;;;;;;11.93;100.00;99217.72;4986090;28;19922;-86
2023/06/30 19:11:22;;;;;;;;;;;;;;;11.80;100.00;99221.97;5001476;28;19922;-88
2023/06/30 19:14:19;;;;;;;;;;;;;;;11.73;100.00;99218.81;4983323;28;20008;-95
2023/06/30 19:16:53;;;;;;;;;;;;;;;11.67;100.00;99219.16;4969605;28;19922;-92
2023/06/30 19:19:19;;;;;;;;;;;;;;;12.13;100.00;99223.69;4984332;28;19929;-88
2023/06/30 19:21:44;;;;;;;;;;;;;;;16.60;100.00;99211.53;4998647;28;19925;-89
2023/06/30 19:24:13;;;;;;;;;;;;;;;13.69;100.00;99209.72;5000521;28;19921;-89
2023/06/30 19:27:04;;;;;;;;;;;;;;;12.65;100.00;99220.59;5000462;28;19918;-89
2023/06/30 19:29:33;;;;;;;;;;;;;;;12.53;100.00;99216.84;4978663;28;19921;-91
2023/06/30 19:32:10;;;;;;;;;;;;;;;12.20;100.00;99226.84;4979920;28;19928;-93
2023/06/30 19:34:35;;;;;;;;;;;;;;;12.10;100.00;99231.81;5001643;28;20384;-86
2023/06/30 19:37:01;;;;;;;;;;;;;;;12.01;100.00;99233.19;4983139;28;19924;-86
2023/06/30 19:39:43;;;;;;;;;;;;;;;11.99;100.00;99237.75;5000296;28;20004;-91
2023/06/30 19:42:38;;;;;;;;;;;;;;;;;;;;;
2023/06/30 19:45:12;;;;;;;;;;;;;;;12.16;100.00;99237.63;5002720;28;19922;-90
2023/06/30 19:47:57;;;;;;;;;;;;;;;11.97;100.00;99231.69;5003383;28;19956;-92
2023/06/30 19:50:52;;;;;;;;;;;;;;;11.94;100.00;99242.47;4985128;28;19917;-92
2023/06/30 19:53:38;;;;;;;;;;;;;;;12.04;100.00;99243.66;4937872;28;20006;-91
2023/06/30 19:56:04;;;;;;;;;;;;;;;12.01;100.00;99242.97;4976870;28;19975;-88
2023/06/30 19:58:29;;;;;;;;;;;;;;;12.13;100.00;99251.09;4986084;28;20373;-90
2023/06/30 20:01:03;;;;;;;;;;;;;;;11.98;100.00;99249.31;4985580;28;19960;-91
2023/06/30 20:03:29;;;;;;;;;;;;;;;13.41;100.00;99243.41;4999084;28;19973;-92
2023/06/30 20:05:54;;;;;;;;;;;;;;;12.43;100.00;99250.25;4988185;28;19925;-88
2023/06/30 20:08:20;;;;;;;;;;;;;;;12.20;100.00;99248.09;5003250;28;19922;-92
2023/06/30 20:13:22;;;;;;;;;;;;;;;12.04;100.00;99254.28;5000884;23;19926;-93
2023/06/30 20:15:48;;;;;;;;;;;;;;;12.04;100.00;99254.28;4976943;28;20320;-88
2023/06/30 20:18:16;;;;;;;;;;;;;;;12.03;100.00;99260.53;4976660;28;19924;-89
2023/06/30 20:20:41;;;;;;;;;;;;;;;12.04;100.00;99259.56;4973034;28;19948;-88
2023/06/30 20:23:06;;;;;;;;;;;;;;;12.18;100.00;99256.97;4974824;28;20457;-84
2023/06/30 20:25:31;;;;;;;;;;;;;;;11.98;100.00;99255.50;4991769;28;19948;-90
2023/06/30 20:27:59;;;;;;;;;;;;;;;11.98;100.00;99254.63;4990301;28;19948;-89
2023/06/30 20:30:24;;;;;;;;;;;;;;;11.98;100.00;99252.84;4984619;28;19933;-90
2023/06/30 20:32:50;;;;;;;;;;;;;;;12.11;100.00;99253.00;4993532;28;20365;-88
2023/06/30 20:35:18;;;;;;;;;;;;;;;11.95;100.00;99249.47;4975182;28;19925;-90
2023/06/30 20:37:44;;;;;;;;;;;;;;;15.88;100.00;99240.03;4991708;28;19930;-90
2023/06/30 20:40:12;;;;;;;;;;;;;;;13.09;100.00;99243.59;4976790;28;19929;-93
2023/06/30 20:42:37;;;;;;;;;;;;;;;12.41;100.00;99249.47;4996189;28;19933;-89
2023/06/30 20:45:50;;;;;;;;;;;;;;;12.41;100.00;99246.81;4997726;28;19917;-90
2023/06/30 20:48:36;;;;;;;;;;;;;;;;;;;;;
2023/06/30 20:51:04;;;;;;;;;;;;;;;12.22;100.00;99252.38;4992196;28;19924;-94
2023/06/30 20:53:30;;;;;;;;;;;;;;;12.10;100.00;99253.91;4996095;28;20292;-90
2023/06/30 20:55:57;;;;;;;;;;;;;;;12.04;100.00;99248.13;4996606;28;19965;-91
2023/06/30 20:58:22;;;;;;;;;;;;;;;11.98;100.00;99246.66;4979041;28;19922;-94
2023/06/30 21:00:51;;;;;;;;;;;;;;;11.97;100.00;99248.47;4978974;28;19925;-92
2023/06/30 21:03:22;;;;;;;;;;;;;;;11.98;100.00;99241.34;4994551;28;20274;-88
2023/06/30 21:05:49;;;;;;;;;;;;;;;11.95;100.00;99238.84;4978081;28;19933;-90
2023/06/30 21:08:15;;;;;;;;;;;;;;;12.11;100.00;99244.13;4995409;28;19918;-91
2023/06/30 21:10:40;;;;;;;;;;;;;;;11.97;100.00;99239.66;4981494;28;19948;-87
2023/06/30 21:13:21;;;;;;;;;;;;;;;11.96;100.00;99235.28;4977680;28;19922;-90
2023/06/30 21:15:46;;;;;;;;;;;;;;;11.95;100.00;99242.38;4977221;28;20008;-89
2023/06/30 21:18:12;;;;;;;;;;;;;;;11.92;100.00;99239.91;4977091;28;20424;-87
2023/06/30 21:20:37;;;;;;;;;;;;;;;11.88;100.00;99238.31;4995297;28;19932;-89
2023/06/30 21:23:05;;;;;;;;;;;;;;;11.87;100.00;99249.03;4977493;28;19922;-90
2023/06/30 21:25:32;;;;;;;;;;;;;;;12.02;100.00;99242.88;4995475;28;19935;-91
2023/06/30 21:27:59;;;;;;;;;;;;;;;11.87;100.00;99236.63;4995113;28;19922;-87
2023/06/30 21:30:24;;;;;;;;;;;;;;;11.88;100.00;99237.47;4978025;28;20391;-89
2023/06/30 21:32:50;;;;;;;;;;;;;;;11.95;100.00;99244.16;4993672;28;20048;-87
2023/06/30 21:35:15;;;;;;;;;;;;;;;11.87;100.00;99246.38;4977877;28;19917;-90
2023/06/30 21:37:43;;;;;;;;;;;;;;;11.79;100.00;99242.38;4978032;28;19928;-90
2023/06/30 21:40:18;;;;;;;;;;;;;;;11.80;100.00;99235.25;4977588;28;19929;-89
2023/06/30 21:42:44;;;;;;;;;;;;;;;11.84;100.00;99241.25;4994615;28;19948;-88
2023/06/30 21:45:10;;;;;;;;;;;;;;;14.56;100.00;99235.97;4994084;28;19918;-88
2023/06/30 21:47:47;;;;;;;;;;;;;;;12.42;100.00;99229.94;4976498;28;19941;-92
2023/06/30 21:50:21;;;;;;;;;;;;;;;11.97;100.00;99234.34;4976491;28;20425;-91
2023/06/30 21:52:56;;;;;;;;;;;;;;;12.11;100.00;99239.72;4994815;28;19926;-91
2023/06/30 21:55:22;;;;;;;;;;;;;;;11.86;100.00;99234.06;4976400;28;19921;-86
2023/06/30 21:57:49;;;;;;;;;;;;;;;11.91;100.00;99232.00;4992440;28;19924;-90
2023/06/30 22:00:23;;;;;;;;;;;;;;;11.97;100.00;99229.88;4976585;28;20029;-90
2023/06/30 22:02:53;;;;;;;;;;;;;;;11.87;100.00;99235.75;4977419;28;19925;-87
2023/06/30 22:05:19;;;;;;;;;;;;;;;11.94;100.00;99223.88;4992979;28;21092;-87
2023/06/30 22:07:51;;;;;;;;;;;;;;;11.78;100.00;99224.72;4976255;28;19991;-89
2023/06/30 22:10:17;;;;;;;;;;;;;;;11.79;100.00;99218.47;4976092;28;20009;-88
2023/06/30 22:12:43;;;;;;;;;;;;;;;11.71;100.00;99226.03;4975427;28;19921;-87
2023/06/30 22:15:11;;;;;;;;;;;;;;;11.88;100.00;99218.91;4975996;28;19988;-88
2023/06/30 22:17:37;;;;;;;;;;;;;;;11.69;100.00;99224.41;4976402;28;19976;-85
2023/06/30 22:20:24;;;;;;;;;;;;;;;11.89;100.00;99225.94;4993533;28;19922;-92
2023/06/30 22:23:00;;;;;;;;;;;;;;;;;;;;;
2023/06/30 22:25:28;;;;;;;;;;;;;;;11.94;100.00;99227.41;4993551;28;19936;-89
2023/06/30 22:27:55;;;;;;;;;;;;;;;11.73;100.00;99223.28;4975152;28;19922;-91
2023/06/30 22:30:21;;;;;;;;;;;;;;;11.88;100.00;99226.88;4975652;28;19922;-88
2023/06/30 22:32:46;;;;;;;;;;;;;;;11.70;100.00;99226.97;4993558;28;20262;-88
2023/06/30 22:35:17;;;;;;;;;;;;;;;11.75;100.00;99232.84;4993700;28;20020;-88
2023/06/30 22:37:45;;;;;;;;;;;;;;;11.93;100.00;99232.78;4993210;28;19921;-89
2023/06/30 22:40:37;;;;;;;;;;;;;;;11.69;100.00;99227.03;4984012;28;19918;-91
2023/06/30 22:43:10;;;;;;;;;;;;;;;11.81;100.00;99231.66;4991503;28;20436;-90
2023/06/30 22:45:53;;;;;;;;;;;;;;;;;;;;;
2023/06/30 22:48:36;;;;;;;;;;;;;;;11.80;100.00;99230.78;4992662;28;19924;-85
2023/06/30 22:51:02;;;;;;;;;;;;;;;11.99;100.00;99225.31;4976502;28;20016;-87
2023/06/30 22:53:31;;;;;;;;;;;;;;;11.82;100.00;99228.06;4993794;28;20048;-93
2023/06/30 22:56:08;;;;;;;;;;;;;;;;;;;;;
2023/06/30 22:58:34;;;;;;;;;;;;;;;11.76;100.00;99216.00;4993650;28;19918;-90
2023/06/30 23:01:10;;;;;;;;;;;;;;;11.73;100.00;99223.28;4993384;28;19924;-89
2023/06/30 23:03:35;;;;;;;;;;;;;;;11.70;100.00;99219.00;4975306;28;19921;-89
2023/06/30 23:06:03;;;;;;;;;;;;;;;11.88;100.00;99219.75;4993359;28;19921;-92
2023/06/30 23:08:49;;;;;;;;;;;;;;;11.94;100.00;99215.94;4977155;28;20098;-93
2023/06/30 23:11:41;;;;;;;;;;;;;;;11.79;100.00;99213.19;4991171;28;20009;-92
2023/06/30 23:14:06;;;;;;;;;;;;;;;11.77;100.00;99216.84;4976883;28;19928;-88
2023/06/30 23:16:39;;;;;;;;;;;;;;;11.63;100.00;99207.00;4976542;28;19925;-86
2023/06/30 23:19:05;;;;;;;;;;;;;;;11.60;100.00;99212.50;4995297;28;19929;-89
2023/06/30 23:25:05;;;;;;;;;;;;;;;11.72;100.00;99206.50;4925201;29;20156;-89
2023/06/30 23:27:40;;;;;;;;;;;;;;;;;;;;;
2023/06/30 23:30:42;;;;;;;;;;;;;;;11.71;100.00;99211.88;4991930;28;19932;-92
2023/06/30 23:33:16;;;;;;;;;;;;;;;11.66;100.00;99206.84;4975842;28;20512;-88
2023/06/30 23:35:43;;;;;;;;;;;;;;;11.63;100.00;99201.69;4992172;28;20385;-88
2023/06/30 23:38:08;;;;;;;;;;;;;;;11.67;100.00;99213.03;4989812;28;19968;-89
2023/06/30 23:40:33;;;;;;;;;;;;;;;11.65;100.00;99205.16;4975198;28;19965;-89
2023/06/30 23:43:01;;;;;;;;;;;;;;;11.60;100.00;99202.75;4991484;28;19934;-87
2023/06/30 23:45:32;;;;;;;;;;;;;;;11.80;100.00;99206.91;4992661;28;19969;-87
2023/06/30 23:47:57;;;;;;;;;;;;;;;11.60;100.00;99201.91;4992422;28;19964;-85
2023/06/30 23:50:23;;;;;;;;;;;;;;;11.85;100.00;99192.53;4974942;28;19969;-85
2023/06/30 23:52:48;;;;;;;;;;;;;;;11.58;100.00;99194.03;4974956;28;19921;-88
2023/06/30 23:55:14;;;;;;;;;;;;;;;11.62;100.00;99190.25;4992558;28;19921;-85
2023/06/30 23:57:39;;;;;;;;;;;;;;;11.54;100.00;99191.63;4990646;28;19921;-87
